sensor_id;sensor_type;location;lat;lon;timestamp;temperature;humidity
27801;DHT22;15181;49.112;11.930;2022-09-21T00:00:49;6.60;99.90
27801;DHT22;15181;49.112;11.930;2022-09-21T00:03:15;6.60;99.90
27801;DHT22;15181;49.112;11.930;2022-09-21T00:05:42;6.70;99.90
27801;DHT22;15181;49.112;11.930;2022-09-21T00:08:11;6.70;99.90
27801;DHT22;15181;49.112;11.930;2022-09-21T00:10:38;6.70;99.90
27801;DHT22;15181;49.112;11.930;2022-09-21T00:13:05;6.70;99.90
27801;DHT22;15181;49.112;11.930;2022-09-21T00:15:33;6.80;99.90
27801;DHT22;15181;49.112;11.930;2022-09-21T00:18:00;6.80;99.90
27801;DHT22;15181;49.112;11.930;2022-09-21T00:20:27;6.70;99.90
27801;DHT22;15181;49.112;11.930;2022-09-21T00:22:54;6.70;99.90
27801;DHT22;15181;49.112;11.930;2022-09-21T00:25:22;6.60;99.90
27801;DHT22;15181;49.112;11.930;2022-09-21T00:27:48;6.60;99.90
27801;DHT22;15181;49.112;11.930;2022-09-21T00:30:16;6.60;99.90
27801;DHT22;15181;49.112;11.930;2022-09-21T00:32:42;6.60;99.90
27801;DHT22;15181;49.112;11.930;2022-09-21T00:35:09;6.60;99.90
27801;DHT22;15181;49.112;11.930;2022-09-21T00:37:36;6.70;99.90
27801;DHT22;15181;49.112;11.930;2022-09-21T00:40:02;6.70;99.90
27801;DHT22;15181;49.112;11.930;2022-09-21T00:42:31;6.70;99.90
27801;DHT22;15181;49.112;11.930;2022-09-21T00:44:58;6.90;99.90
27801;DHT22;15181;49.112;11.930;2022-09-21T00:47:26;6.70;99.90
27801;DHT22;15181;49.112;11.930;2022-09-21T00:49:54;6.70;99.90
27801;DHT22;15181;49.112;11.930;2022-09-21T00:52:21;6.70;99.90
27801;DHT22;15181;49.112;11.930;2022-09-21T00:54:50;6.70;99.90
27801;DHT22;15181;49.112;11.930;2022-09-21T00:57:18;6.70;99.90
27801;DHT22;15181;49.112;11.930;2022-09-21T00:59:47;6.70;99.90
27801;DHT22;15181;49.112;11.930;2022-09-21T01:02:15;6.50;99.90
27801;DHT22;15181;49.112;11.930;2022-09-21T01:04:42;6.30;99.90
27801;DHT22;15181;49.112;11.930;2022-09-21T01:07:10;6.10;99.90
27801;DHT22;15181;49.112;11.930;2022-09-21T01:09:38;6.10;99.90
27801;DHT22;15181;49.112;11.930;2022-09-21T01:12:10;5.90;99.90
27801;DHT22;15181;49.112;11.930;2022-09-21T01:14:44;5.70;99.90
27801;DHT22;15181;49.112;11.930;2022-09-21T01:17:20;5.80;99.90
27801;DHT22;15181;49.112;11.930;2022-09-21T01:20:02;5.80;99.90
27801;DHT22;15181;49.112;11.930;2022-09-21T01:22:36;5.80;99.90
27801;DHT22;15181;49.112;11.930;2022-09-21T01:25:09;5.90;99.90
27801;DHT22;15181;49.112;11.930;2022-09-21T01:27:44;5.90;99.90
27801;DHT22;15181;49.112;11.930;2022-09-21T01:30:16;5.90;99.90
27801;DHT22;15181;49.112;11.930;2022-09-21T01:32:44;5.80;99.90
27801;DHT22;15181;49.112;11.930;2022-09-21T01:35:14;5.70;99.90
27801;DHT22;15181;49.112;11.930;2022-09-21T01:37:43;5.60;99.90
27801;DHT22;15181;49.112;11.930;2022-09-21T01:40:12;5.60;99.90
27801;DHT22;15181;49.112;11.930;2022-09-21T01:42:40;5.60;99.90
27801;DHT22;15181;49.112;11.930;2022-09-21T01:45:09;5.60;99.90
27801;DHT22;15181;49.112;11.930;2022-09-21T01:47:38;5.60;99.90
27801;DHT22;15181;49.112;11.930;2022-09-21T01:50:06;5.70;99.90
27801;DHT22;15181;49.112;11.930;2022-09-21T01:52:35;5.70;99.90
27801;DHT22;15181;49.112;11.930;2022-09-21T01:55:05;5.60;99.90
27801;DHT22;15181;49.112;11.930;2022-09-21T01:57:33;5.60;99.90
27801;DHT22;15181;49.112;11.930;2022-09-21T02:00:04;5.60;99.90
27801;DHT22;15181;49.112;11.930;2022-09-21T02:02:34;5.70;99.90
27801;DHT22;15181;49.112;11.930;2022-09-21T02:05:04;5.80;99.90
27801;DHT22;15181;49.112;11.930;2022-09-21T02:07:31;5.90;99.90
27801;DHT22;15181;49.112;11.930;2022-09-21T02:09:59;5.80;99.90
27801;DHT22;15181;49.112;11.930;2022-09-21T02:12:26;5.90;99.90
27801;DHT22;15181;49.112;11.930;2022-09-21T02:14:53;5.90;99.90
27801;DHT22;15181;49.112;11.930;2022-09-21T02:17:25;5.80;99.90
27801;DHT22;15181;49.112;11.930;2022-09-21T02:19:54;5.70;99.90
27801;DHT22;15181;49.112;11.930;2022-09-21T02:22:27;5.70;99.90
27801;DHT22;15181;49.112;11.930;2022-09-21T02:25:01;5.70;99.90
27801;DHT22;15181;49.112;11.930;2022-09-21T02:27:31;5.50;99.90
27801;DHT22;15181;49.112;11.930;2022-09-21T02:30:01;5.50;99.90
27801;DHT22;15181;49.112;11.930;2022-09-21T02:32:30;5.50;99.90
27801;DHT22;15181;49.112;11.930;2022-09-21T02:35:02;5.40;99.90
27801;DHT22;15181;49.112;11.930;2022-09-21T02:37:36;5.40;99.90
27801;DHT22;15181;49.112;11.930;2022-09-21T02:40:05;5.30;99.90
27801;DHT22;15181;49.112;11.930;2022-09-21T02:42:36;5.30;99.90
27801;DHT22;15181;49.112;11.930;2022-09-21T02:45:04;5.30;99.90
27801;DHT22;15181;49.112;11.930;2022-09-21T02:47:32;5.10;99.90
27801;DHT22;15181;49.112;11.930;2022-09-21T02:50:02;5.10;99.90
27801;DHT22;15181;49.112;11.930;2022-09-21T02:52:29;5.00;99.90
27801;DHT22;15181;49.112;11.930;2022-09-21T02:54:59;5.00;99.90
27801;DHT22;15181;49.112;11.930;2022-09-21T02:57:27;5.00;99.90
27801;DHT22;15181;49.112;11.930;2022-09-21T02:59:54;4.80;99.90
27801;DHT22;15181;49.112;11.930;2022-09-21T03:02:21;4.70;99.90
27801;DHT22;15181;49.112;11.930;2022-09-21T03:04:47;4.70;99.90
27801;DHT22;15181;49.112;11.930;2022-09-21T03:07:14;4.70;99.90
27801;DHT22;15181;49.112;11.930;2022-09-21T03:09:41;4.70;99.90
27801;DHT22;15181;49.112;11.930;2022-09-21T03:12:10;4.80;99.90
27801;DHT22;15181;49.112;11.930;2022-09-21T03:14:36;4.90;99.90
27801;DHT22;15181;49.112;11.930;2022-09-21T03:17:03;4.90;99.90
27801;DHT22;15181;49.112;11.930;2022-09-21T03:19:30;4.90;99.90
27801;DHT22;15181;49.112;11.930;2022-09-21T03:21:56;5.00;99.90
27801;DHT22;15181;49.112;11.930;2022-09-21T03:24:24;5.00;99.90
27801;DHT22;15181;49.112;11.930;2022-09-21T03:27:09;5.00;99.90
27801;DHT22;15181;49.112;11.930;2022-09-21T03:29:36;4.90;99.90
27801;DHT22;15181;49.112;11.930;2022-09-21T03:32:04;4.90;99.90
27801;DHT22;15181;49.112;11.930;2022-09-21T03:34:31;4.90;99.90
27801;DHT22;15181;49.112;11.930;2022-09-21T03:36:58;4.90;99.90
27801;DHT22;15181;49.112;11.930;2022-09-21T03:39:25;4.90;99.90
27801;DHT22;15181;49.112;11.930;2022-09-21T03:41:52;4.90;99.90
27801;DHT22;15181;49.112;11.930;2022-09-21T03:44:22;4.70;99.90
27801;DHT22;15181;49.112;11.930;2022-09-21T03:46:49;4.60;99.90
27801;DHT22;15181;49.112;11.930;2022-09-21T03:49:15;4.50;99.90
27801;DHT22;15181;49.112;11.930;2022-09-21T03:51:42;4.50;99.90
27801;DHT22;15181;49.112;11.930;2022-09-21T03:54:09;4.40;99.90
27801;DHT22;15181;49.112;11.930;2022-09-21T03:56:36;4.50;99.90
27801;DHT22;15181;49.112;11.930;2022-09-21T03:59:02;4.50;99.90
27801;DHT22;15181;49.112;11.930;2022-09-21T04:01:30;4.60;99.90
27801;DHT22;15181;49.112;11.930;2022-09-21T04:03:57;4.40;99.90
27801;DHT22;15181;49.112;11.930;2022-09-21T04:06:24;4.30;99.90
27801;DHT22;15181;49.112;11.930;2022-09-21T04:08:50;4.20;99.90
27801;DHT22;15181;49.112;11.930;2022-09-21T04:11:19;4.10;99.90
27801;DHT22;15181;49.112;11.930;2022-09-21T04:13:48;4.20;99.90
27801;DHT22;15181;49.112;11.930;2022-09-21T04:16:15;4.20;99.90
27801;DHT22;15181;49.112;11.930;2022-09-21T04:18:44;4.40;99.90
27801;DHT22;15181;49.112;11.930;2022-09-21T04:21:14;4.50;99.90
27801;DHT22;15181;49.112;11.930;2022-09-21T04:23:41;4.50;99.90
27801;DHT22;15181;49.112;11.930;2022-09-21T04:26:16;4.50;99.90
27801;DHT22;15181;49.112;11.930;2022-09-21T04:28:44;4.60;99.90
27801;DHT22;15181;49.112;11.930;2022-09-21T04:31:10;4.80;99.90
27801;DHT22;15181;49.112;11.930;2022-09-21T04:33:37;4.40;99.90
27801;DHT22;15181;49.112;11.930;2022-09-21T04:36:05;4.20;99.90
27801;DHT22;15181;49.112;11.930;2022-09-21T04:38:32;4.10;99.90
27801;DHT22;15181;49.112;11.930;2022-09-21T04:40:59;4.00;99.90
27801;DHT22;15181;49.112;11.930;2022-09-21T04:43:26;4.00;99.90
27801;DHT22;15181;49.112;11.930;2022-09-21T04:45:52;3.90;99.90
27801;DHT22;15181;49.112;11.930;2022-09-21T04:48:19;4.00;99.90
27801;DHT22;15181;49.112;11.930;2022-09-21T04:50:47;4.00;99.90
27801;DHT22;15181;49.112;11.930;2022-09-21T04:53:15;4.20;99.90
27801;DHT22;15181;49.112;11.930;2022-09-21T04:55:43;3.90;99.90
27801;DHT22;15181;49.112;11.930;2022-09-21T04:58:10;3.80;99.90
27801;DHT22;15181;49.112;11.930;2022-09-21T05:00:37;3.80;99.90
27801;DHT22;15181;49.112;11.930;2022-09-21T05:03:04;3.80;99.90
27801;DHT22;15181;49.112;11.930;2022-09-21T05:05:30;3.90;99.90
27801;DHT22;15181;49.112;11.930;2022-09-21T05:07:57;4.00;99.90
27801;DHT22;15181;49.112;11.930;2022-09-21T05:10:25;4.10;99.90
27801;DHT22;15181;49.112;11.930;2022-09-21T05:12:51;4.20;99.90
27801;DHT22;15181;49.112;11.930;2022-09-21T05:15:17;4.20;99.90
27801;DHT22;15181;49.112;11.930;2022-09-21T05:17:44;4.30;99.90
27801;DHT22;15181;49.112;11.930;2022-09-21T05:20:11;4.30;99.90
27801;DHT22;15181;49.112;11.930;2022-09-21T05:22:38;4.50;99.90
27801;DHT22;15181;49.112;11.930;2022-09-21T05:25:05;4.40;99.90
27801;DHT22;15181;49.112;11.930;2022-09-21T05:27:33;4.50;99.90
27801;DHT22;15181;49.112;11.930;2022-09-21T05:30:00;4.70;99.90
27801;DHT22;15181;49.112;11.930;2022-09-21T05:32:27;4.70;99.90
27801;DHT22;15181;49.112;11.930;2022-09-21T05:35:01;4.70;99.90
27801;DHT22;15181;49.112;11.930;2022-09-21T05:37:36;4.70;99.90
27801;DHT22;15181;49.112;11.930;2022-09-21T05:40:05;4.70;99.90
27801;DHT22;15181;49.112;11.930;2022-09-21T05:42:34;4.60;99.90
27801;DHT22;15181;49.112;11.930;2022-09-21T05:45:01;4.40;99.90
27801;DHT22;15181;49.112;11.930;2022-09-21T05:47:31;4.30;99.90
27801;DHT22;15181;49.112;11.930;2022-09-21T05:50:02;4.30;99.90
27801;DHT22;15181;49.112;11.930;2022-09-21T05:52:32;4.30;99.90
27801;DHT22;15181;49.112;11.930;2022-09-21T05:55:02;4.30;99.90
27801;DHT22;15181;49.112;11.930;2022-09-21T05:57:35;4.40;99.90
27801;DHT22;15181;49.112;11.930;2022-09-21T06:00:08;4.10;99.90
27801;DHT22;15181;49.112;11.930;2022-09-21T06:02:43;4.00;99.90
27801;DHT22;15181;49.112;11.930;2022-09-21T06:05:13;4.10;99.90
27801;DHT22;15181;49.112;11.930;2022-09-21T06:07:40;4.10;99.90
27801;DHT22;15181;49.112;11.930;2022-09-21T06:10:08;4.10;99.90
27801;DHT22;15181;49.112;11.930;2022-09-21T06:12:36;4.30;99.90
27801;DHT22;15181;49.112;11.930;2022-09-21T06:15:03;4.20;99.90
27801;DHT22;15181;49.112;11.930;2022-09-21T06:17:31;4.20;99.90
27801;DHT22;15181;49.112;11.930;2022-09-21T06:19:57;4.00;99.90
27801;DHT22;15181;49.112;11.930;2022-09-21T06:22:24;4.10;99.90
27801;DHT22;15181;49.112;11.930;2022-09-21T06:24:51;4.20;99.90
27801;DHT22;15181;49.112;11.930;2022-09-21T06:27:17;4.20;99.90
27801;DHT22;15181;49.112;11.930;2022-09-21T06:29:45;4.30;99.90
27801;DHT22;15181;49.112;11.930;2022-09-21T06:32:12;4.50;99.90
27801;DHT22;15181;49.112;11.930;2022-09-21T06:34:39;4.70;99.90
27801;DHT22;15181;49.112;11.930;2022-09-21T06:37:07;5.00;99.90
27801;DHT22;15181;49.112;11.930;2022-09-21T06:39:33;5.00;99.90
27801;DHT22;15181;49.112;11.930;2022-09-21T06:42:00;5.20;99.90
27801;DHT22;15181;49.112;11.930;2022-09-21T06:44:27;5.40;99.90
27801;DHT22;15181;49.112;11.930;2022-09-21T06:46:56;5.50;99.90
27801;DHT22;15181;49.112;11.930;2022-09-21T06:49:22;5.60;99.90
27801;DHT22;15181;49.112;11.930;2022-09-21T06:51:51;5.80;99.90
27801;DHT22;15181;49.112;11.930;2022-09-21T06:54:18;6.00;99.90
27801;DHT22;15181;49.112;11.930;2022-09-21T06:56:44;5.80;99.90
27801;DHT22;15181;49.112;11.930;2022-09-21T06:59:11;5.70;99.90
27801;DHT22;15181;49.112;11.930;2022-09-21T07:01:38;5.60;99.90
27801;DHT22;15181;49.112;11.930;2022-09-21T07:04:06;5.60;99.90
27801;DHT22;15181;49.112;11.930;2022-09-21T07:06:33;5.50;99.90
27801;DHT22;15181;49.112;11.930;2022-09-21T07:09:00;5.70;99.90
27801;DHT22;15181;49.112;11.930;2022-09-21T07:11:27;5.80;99.90
27801;DHT22;15181;49.112;11.930;2022-09-21T07:13:53;5.90;99.90
27801;DHT22;15181;49.112;11.930;2022-09-21T07:16:20;6.00;99.90
27801;DHT22;15181;49.112;11.930;2022-09-21T07:18:47;6.20;99.90
27801;DHT22;15181;49.112;11.930;2022-09-21T07:21:15;6.30;99.90
27801;DHT22;15181;49.112;11.930;2022-09-21T07:23:42;6.50;99.90
27801;DHT22;15181;49.112;11.930;2022-09-21T07:26:10;6.60;99.90
27801;DHT22;15181;49.112;11.930;2022-09-21T07:28:37;6.80;99.90
27801;DHT22;15181;49.112;11.930;2022-09-21T07:31:05;7.00;99.90
27801;DHT22;15181;49.112;11.930;2022-09-21T07:33:32;7.10;99.90
27801;DHT22;15181;49.112;11.930;2022-09-21T07:36:00;7.20;99.90
27801;DHT22;15181;49.112;11.930;2022-09-21T07:38:29;7.10;99.90
27801;DHT22;15181;49.112;11.930;2022-09-21T07:40:56;7.20;99.90
27801;DHT22;15181;49.112;11.930;2022-09-21T07:43:22;7.30;99.90
27801;DHT22;15181;49.112;11.930;2022-09-21T07:45:52;7.40;99.90
27801;DHT22;15181;49.112;11.930;2022-09-21T07:48:20;7.50;99.90
27801;DHT22;15181;49.112;11.930;2022-09-21T07:50:47;7.60;99.90
27801;DHT22;15181;49.112;11.930;2022-09-21T07:53:14;7.80;99.90
27801;DHT22;15181;49.112;11.930;2022-09-21T07:55:43;7.90;99.90
27801;DHT22;15181;49.112;11.930;2022-09-21T07:58:09;7.90;99.90
27801;DHT22;15181;49.112;11.930;2022-09-21T08:00:53;8.00;99.90
27801;DHT22;15181;49.112;11.930;2022-09-21T08:03:20;8.10;99.90
27801;DHT22;15181;49.112;11.930;2022-09-21T08:05:47;8.10;99.90
27801;DHT22;15181;49.112;11.930;2022-09-21T08:08:13;8.20;99.90
27801;DHT22;15181;49.112;11.930;2022-09-21T08:10:42;8.20;99.90
27801;DHT22;15181;49.112;11.930;2022-09-21T08:13:09;8.20;99.90
27801;DHT22;15181;49.112;11.930;2022-09-21T08:15:36;8.20;99.90
27801;DHT22;15181;49.112;11.930;2022-09-21T08:18:03;8.20;99.90
27801;DHT22;15181;49.112;11.930;2022-09-21T08:20:31;8.50;99.90
27801;DHT22;15181;49.112;11.930;2022-09-21T08:22:58;8.70;99.90
27801;DHT22;15181;49.112;11.930;2022-09-21T08:25:26;8.90;99.90
27801;DHT22;15181;49.112;11.930;2022-09-21T08:27:57;9.10;99.90
27801;DHT22;15181;49.112;11.930;2022-09-21T08:30:25;9.10;99.90
27801;DHT22;15181;49.112;11.930;2022-09-21T08:32:52;9.10;99.90
27801;DHT22;15181;49.112;11.930;2022-09-21T08:35:19;9.00;99.90
27801;DHT22;15181;49.112;11.930;2022-09-21T08:37:46;9.10;99.90
27801;DHT22;15181;49.112;11.930;2022-09-21T08:40:15;9.30;99.90
27801;DHT22;15181;49.112;11.930;2022-09-21T08:42:44;9.40;99.90
27801;DHT22;15181;49.112;11.930;2022-09-21T08:45:17;9.50;99.90
27801;DHT22;15181;49.112;11.930;2022-09-21T08:47:45;9.80;99.90
27801;DHT22;15181;49.112;11.930;2022-09-21T08:50:20;9.80;99.90
27801;DHT22;15181;49.112;11.930;2022-09-21T08:52:48;9.80;99.90
27801;DHT22;15181;49.112;11.930;2022-09-21T08:55:17;9.80;99.90
27801;DHT22;15181;49.112;11.930;2022-09-21T08:57:44;9.80;99.90
27801;DHT22;15181;49.112;11.930;2022-09-21T09:00:12;9.90;99.90
27801;DHT22;15181;49.112;11.930;2022-09-21T09:02:43;10.20;99.90
27801;DHT22;15181;49.112;11.930;2022-09-21T09:05:17;10.20;99.90
27801;DHT22;15181;49.112;11.930;2022-09-21T09:07:51;9.90;99.90
27801;DHT22;15181;49.112;11.930;2022-09-21T09:10:23;10.00;99.90
27801;DHT22;15181;49.112;11.930;2022-09-21T09:12:55;10.00;99.90
27801;DHT22;15181;49.112;11.930;2022-09-21T09:15:29;10.10;99.90
27801;DHT22;15181;49.112;11.930;2022-09-21T09:17:59;10.30;99.90
27801;DHT22;15181;49.112;11.930;2022-09-21T09:20:28;10.40;99.90
27801;DHT22;15181;49.112;11.930;2022-09-21T09:23:01;10.50;99.90
27801;DHT22;15181;49.112;11.930;2022-09-21T09:25:31;10.50;99.90
27801;DHT22;15181;49.112;11.930;2022-09-21T09:27:59;10.60;99.90
27801;DHT22;15181;49.112;11.930;2022-09-21T09:30:32;10.70;99.90
27801;DHT22;15181;49.112;11.930;2022-09-21T09:33:02;10.80;99.90
27801;DHT22;15181;49.112;11.930;2022-09-21T09:35:33;10.80;99.90
27801;DHT22;15181;49.112;11.930;2022-09-21T09:38:02;10.90;99.90
27801;DHT22;15181;49.112;11.930;2022-09-21T09:40:42;11.10;99.90
27801;DHT22;15181;49.112;11.930;2022-09-21T09:43:12;11.20;99.90
27801;DHT22;15181;49.112;11.930;2022-09-21T09:45:47;11.30;99.90
27801;DHT22;15181;49.112;11.930;2022-09-21T09:48:24;11.40;99.90
27801;DHT22;15181;49.112;11.930;2022-09-21T09:50:53;11.40;99.90
27801;DHT22;15181;49.112;11.930;2022-09-21T09:53:20;11.60;99.90
27801;DHT22;15181;49.112;11.930;2022-09-21T09:55:48;11.70;99.90
27801;DHT22;15181;49.112;11.930;2022-09-21T09:58:16;11.80;99.90
27801;DHT22;15181;49.112;11.930;2022-09-21T10:00:44;11.80;99.90
27801;DHT22;15181;49.112;11.930;2022-09-21T10:03:14;11.90;99.90
27801;DHT22;15181;49.112;11.930;2022-09-21T10:05:43;12.00;99.90
27801;DHT22;15181;49.112;11.930;2022-09-21T10:10:51;12.10;99.90
27801;DHT22;15181;49.112;11.930;2022-09-21T10:13:24;12.20;99.90
27801;DHT22;15181;49.112;11.930;2022-09-21T10:15:53;12.30;99.90
27801;DHT22;15181;49.112;11.930;2022-09-21T10:18:22;12.30;99.90
27801;DHT22;15181;49.112;11.930;2022-09-21T10:20:54;12.40;99.90
27801;DHT22;15181;49.112;11.930;2022-09-21T10:23:22;12.40;99.90
27801;DHT22;15181;49.112;11.930;2022-09-21T10:25:55;12.50;99.90
27801;DHT22;15181;49.112;11.930;2022-09-21T10:28:23;12.50;99.90
27801;DHT22;15181;49.112;11.930;2022-09-21T10:30:50;12.70;99.90
27801;DHT22;15181;49.112;11.930;2022-09-21T10:33:32;12.80;99.90
27801;DHT22;15181;49.112;11.930;2022-09-21T10:36:02;13.00;99.90
27801;DHT22;15181;49.112;11.930;2022-09-21T10:38:28;13.10;99.90
27801;DHT22;15181;49.112;11.930;2022-09-21T10:40:56;13.20;99.90
27801;DHT22;15181;49.112;11.930;2022-09-21T10:43:24;13.40;99.90
27801;DHT22;15181;49.112;11.930;2022-09-21T10:45:51;13.50;99.90
27801;DHT22;15181;49.112;11.930;2022-09-21T10:48:20;13.50;99.90
27801;DHT22;15181;49.112;11.930;2022-09-21T10:50:47;13.50;99.90
27801;DHT22;15181;49.112;11.930;2022-09-21T10:53:21;13.60;99.90
27801;DHT22;15181;49.112;11.930;2022-09-21T10:55:49;13.60;99.90
27801;DHT22;15181;49.112;11.930;2022-09-21T10:58:18;13.60;99.90
27801;DHT22;15181;49.112;11.930;2022-09-21T11:00:45;13.70;99.90
27801;DHT22;15181;49.112;11.930;2022-09-21T11:06:10;13.90;99.90
27801;DHT22;15181;49.112;11.930;2022-09-21T11:08:42;13.90;99.90
27801;DHT22;15181;49.112;11.930;2022-09-21T11:11:16;14.00;99.90
27801;DHT22;15181;49.112;11.930;2022-09-21T11:13:45;14.10;99.90
27801;DHT22;15181;49.112;11.930;2022-09-21T11:16:14;14.20;99.90
27801;DHT22;15181;49.112;11.930;2022-09-21T11:18:44;14.20;99.90
27801;DHT22;15181;49.112;11.930;2022-09-21T11:21:14;14.30;99.90
27801;DHT22;15181;49.112;11.930;2022-09-21T11:23:46;14.40;99.90
27801;DHT22;15181;49.112;11.930;2022-09-21T11:26:14;14.30;99.90
27801;DHT22;15181;49.112;11.930;2022-09-21T11:28:46;14.30;99.90
27801;DHT22;15181;49.112;11.930;2022-09-21T11:31:19;14.30;99.90
27801;DHT22;15181;49.112;11.930;2022-09-21T11:33:56;14.40;99.90
27801;DHT22;15181;49.112;11.930;2022-09-21T11:36:31;14.50;99.90
27801;DHT22;15181;49.112;11.930;2022-09-21T11:39:05;14.50;99.90
27801;DHT22;15181;49.112;11.930;2022-09-21T11:41:39;14.50;99.90
27801;DHT22;15181;49.112;11.930;2022-09-21T11:44:14;14.60;99.90
27801;DHT22;15181;49.112;11.930;2022-09-21T11:46:44;14.60;99.90
27801;DHT22;15181;49.112;11.930;2022-09-21T11:49:17;14.70;99.90
27801;DHT22;15181;49.112;11.930;2022-09-21T11:51:54;14.80;99.90
27801;DHT22;15181;49.112;11.930;2022-09-21T11:54:37;14.90;99.90
27801;DHT22;15181;49.112;11.930;2022-09-21T11:57:08;14.80;99.90
27801;DHT22;15181;49.112;11.930;2022-09-21T11:59:47;15.00;99.90
27801;DHT22;15181;49.112;11.930;2022-09-21T12:02:18;15.10;99.90
27801;DHT22;15181;49.112;11.930;2022-09-21T12:04:48;15.30;99.90
27801;DHT22;15181;49.112;11.930;2022-09-21T12:07:19;15.30;99.90
27801;DHT22;15181;49.112;11.930;2022-09-21T12:10:02;15.30;99.90
27801;DHT22;15181;49.112;11.930;2022-09-21T12:12:31;15.40;99.90
27801;DHT22;15181;49.112;11.930;2022-09-21T12:15:01;15.20;99.90
27801;DHT22;15181;49.112;11.930;2022-09-21T12:17:30;15.20;99.90
27801;DHT22;15181;49.112;11.930;2022-09-21T12:20:02;15.10;99.90
27801;DHT22;15181;49.112;11.930;2022-09-21T12:22:32;15.00;99.90
27801;DHT22;15181;49.112;11.930;2022-09-21T12:25:03;14.90;99.90
27801;DHT22;15181;49.112;11.930;2022-09-21T12:27:33;15.00;99.90
27801;DHT22;15181;49.112;11.930;2022-09-21T12:30:02;14.90;99.90
27801;DHT22;15181;49.112;11.930;2022-09-21T12:32:34;14.90;99.90
27801;DHT22;15181;49.112;11.930;2022-09-21T12:35:03;15.10;99.90
27801;DHT22;15181;49.112;11.930;2022-09-21T12:37:32;15.20;99.90
27801;DHT22;15181;49.112;11.930;2022-09-21T12:40:04;15.30;99.90
27801;DHT22;15181;49.112;11.930;2022-09-21T12:42:33;15.40;99.90
27801;DHT22;15181;49.112;11.930;2022-09-21T12:45:02;15.40;99.90
27801;DHT22;15181;49.112;11.930;2022-09-21T12:47:42;15.40;99.90
27801;DHT22;15181;49.112;11.930;2022-09-21T12:50:13;15.30;99.90
27801;DHT22;15181;49.112;11.930;2022-09-21T12:52:41;15.30;99.90
27801;DHT22;15181;49.112;11.930;2022-09-21T12:55:14;15.40;99.90
27801;DHT22;15181;49.112;11.930;2022-09-21T12:57:47;15.50;99.90
27801;DHT22;15181;49.112;11.930;2022-09-21T13:00:16;15.60;99.90
27801;DHT22;15181;49.112;11.930;2022-09-21T13:02:45;15.60;99.90
27801;DHT22;15181;49.112;11.930;2022-09-21T13:05:15;15.60;99.90
27801;DHT22;15181;49.112;11.930;2022-09-21T13:10:35;15.40;99.90
27801;DHT22;15181;49.112;11.930;2022-09-21T13:13:03;15.40;99.90
27801;DHT22;15181;49.112;11.930;2022-09-21T13:15:40;15.30;99.90
27801;DHT22;15181;49.112;11.930;2022-09-21T13:18:14;15.20;99.90
27801;DHT22;15181;49.112;11.930;2022-09-21T13:20:42;15.20;99.90
27801;DHT22;15181;49.112;11.930;2022-09-21T13:23:12;15.00;99.90
27801;DHT22;15181;49.112;11.930;2022-09-21T13:25:41;14.90;99.90
27801;DHT22;15181;49.112;11.930;2022-09-21T13:28:17;15.10;99.90
27801;DHT22;15181;49.112;11.930;2022-09-21T13:30:45;15.20;99.90
27801;DHT22;15181;49.112;11.930;2022-09-21T13:33:28;15.30;99.90
27801;DHT22;15181;49.112;11.930;2022-09-21T13:36:02;15.50;99.90
27801;DHT22;15181;49.112;11.930;2022-09-21T13:38:30;15.70;99.90
27801;DHT22;15181;49.112;11.930;2022-09-21T13:41:00;15.90;99.90
27801;DHT22;15181;49.112;11.930;2022-09-21T13:49:12;16.20;99.90
27801;DHT22;15181;49.112;11.930;2022-09-21T13:51:48;16.20;99.90
27801;DHT22;15181;49.112;11.930;2022-09-21T13:54:16;16.10;99.90
27801;DHT22;15181;49.112;11.930;2022-09-21T13:56:45;15.90;99.90
27801;DHT22;15181;49.112;11.930;2022-09-21T13:59:16;15.70;99.90
27801;DHT22;15181;49.112;11.930;2022-09-21T14:01:45;15.70;99.90
27801;DHT22;15181;49.112;11.930;2022-09-21T14:04:16;15.80;99.90
27801;DHT22;15181;49.112;11.930;2022-09-21T14:06:46;15.80;99.90
27801;DHT22;15181;49.112;11.930;2022-09-21T14:09:18;15.60;99.90
27801;DHT22;15181;49.112;11.930;2022-09-21T14:11:51;15.60;99.90
27801;DHT22;15181;49.112;11.930;2022-09-21T14:14:21;15.50;99.90
27801;DHT22;15181;49.112;11.930;2022-09-21T14:16:49;15.40;99.90
27801;DHT22;15181;49.112;11.930;2022-09-21T14:27:35;15.20;99.90
27801;DHT22;15181;49.112;11.930;2022-09-21T14:30:14;15.30;99.90
27801;DHT22;15181;49.112;11.930;2022-09-21T14:32:44;15.20;99.90
27801;DHT22;15181;49.112;11.930;2022-09-21T14:35:14;15.20;99.90
27801;DHT22;15181;49.112;11.930;2022-09-21T14:37:45;15.20;99.90
27801;DHT22;15181;49.112;11.930;2022-09-21T14:40:15;15.10;99.90
27801;DHT22;15181;49.112;11.930;2022-09-21T14:42:45;15.30;99.90
27801;DHT22;15181;49.112;11.930;2022-09-21T14:45:13;15.20;99.90
27801;DHT22;15181;49.112;11.930;2022-09-21T14:47:48;15.20;99.90
27801;DHT22;15181;49.112;11.930;2022-09-21T14:50:24;15.10;99.90
27801;DHT22;15181;49.112;11.930;2022-09-21T14:53:02;15.00;99.90
27801;DHT22;15181;49.112;11.930;2022-09-21T14:55:39;15.00;99.90
27801;DHT22;15181;49.112;11.930;2022-09-21T14:58:14;15.10;99.90
27801;DHT22;15181;49.112;11.930;2022-09-21T15:00:44;15.10;99.90
27801;DHT22;15181;49.112;11.930;2022-09-21T15:05:55;15.20;99.90
27801;DHT22;15181;49.112;11.930;2022-09-21T15:08:29;15.30;99.90
27801;DHT22;15181;49.112;11.930;2022-09-21T15:11:19;15.20;99.90
27801;DHT22;15181;49.112;11.930;2022-09-21T15:13:58;15.10;99.90
27801;DHT22;15181;49.112;11.930;2022-09-21T15:16:34;15.10;99.90
27801;DHT22;15181;49.112;11.930;2022-09-21T15:19:11;15.00;99.90
27801;DHT22;15181;49.112;11.930;2022-09-21T15:21:39;15.00;99.90
27801;DHT22;15181;49.112;11.930;2022-09-21T15:24:09;15.00;99.90
27801;DHT22;15181;49.112;11.930;2022-09-21T15:26:41;15.00;99.90
27801;DHT22;15181;49.112;11.930;2022-09-21T15:29:14;14.90;99.90
27801;DHT22;15181;49.112;11.930;2022-09-21T15:31:45;14.80;99.90
27801;DHT22;15181;49.112;11.930;2022-09-21T15:34:12;14.70;99.90
27801;DHT22;15181;49.112;11.930;2022-09-21T15:36:41;14.50;99.90
27801;DHT22;15181;49.112;11.930;2022-09-21T15:39:19;14.30;99.90
27801;DHT22;15181;49.112;11.930;2022-09-21T15:41:47;14.50;99.90
27801;DHT22;15181;49.112;11.930;2022-09-21T15:44:17;14.50;99.90
27801;DHT22;15181;49.112;11.930;2022-09-21T15:46:48;14.50;99.90
27801;DHT22;15181;49.112;11.930;2022-09-21T15:49:16;14.20;99.90
27801;DHT22;15181;49.112;11.930;2022-09-21T15:51:46;14.10;99.90
27801;DHT22;15181;49.112;11.930;2022-09-21T15:54:22;14.00;99.90
27801;DHT22;15181;49.112;11.930;2022-09-21T15:56:51;13.90;99.90
27801;DHT22;15181;49.112;11.930;2022-09-21T15:59:21;13.80;99.90
27801;DHT22;15181;49.112;11.930;2022-09-21T16:01:51;13.60;99.90
27801;DHT22;15181;49.112;11.930;2022-09-21T16:04:19;13.40;99.90